Time;durP1;ratioP1;P1;durP2;ratioP2;P2;SDS_P1;SDS_P2;PMS_P1;PMS_P2;Temp;Humidity;BMP_temperature;BMP_pressure;BME280_temperature;BME280_humidity;BME280_pressure;Samples;Min_cycle;Max_cycle;Signal;HPM_P1;HPM_P2
2023/08/08 00:00:24;;;;;;;;;;;;;;;15.12;67.83;99763.40;107336;1254;124315;-88
2023/08/08 00:03:13;;;;;;;;;;;;;;;15.12;67.59;99761.82;107404;1256;61052;-87
2023/08/08 00:05:43;;;;;;;;;;;;;;;15.10;67.49;99766.44;107225;1254;124958;-88
2023/08/08 00:08:13;;;;;;;;;;;;;;;15.09;67.48;99764.67;107612;1254;66879;-88
2023/08/08 00:10:40;;;;;;;;;;;;;;;15.09;67.44;99765.20;107609;1256;124363;-86
2023/08/08 00:13:08;;;;;;;;;;;;;;;15.11;67.32;99771.38;107412;1255;61241;-87
2023/08/08 00:15:42;;;;;;;;;;;;;;;15.11;67.17;99774.73;107303;1254;61165;-87
2023/08/08 00:18:09;;;;;;;;;;;;;;;15.11;67.04;99768.55;107241;1256;124796;-86
2023/08/08 00:24:25;;;;;;;;;;;;;;;15.15;66.71;99761.96;107008;1266;124973;-87
2023/08/08 00:26:58;;;;;;;;;;;;;;;15.16;66.52;99759.66;107134;1266;61107;-87
2023/08/08 00:29:31;;;;;;;;;;;;;;;15.18;66.49;99768.48;107661;1262;123570;-86
2023/08/08 00:32:00;;;;;;;;;;;;;;;15.19;66.24;99768.12;106880;1262;73422;-86
2023/08/08 00:34:28;;;;;;;;;;;;;;;15.21;66.25;99774.82;106835;1262;124289;-85
2023/08/08 00:37:08;;;;;;;;;;;;;;;15.21;66.06;99768.09;107110;1262;71420;-85
2023/08/08 00:39:45;;;;;;;;;;;;;;;15.19;65.99;99769.01;106881;1262;61293;-85
2023/08/08 00:42:54;;;;;;;;;;;;;;;15.16;65.73;99774.15;106881;1265;122732;-85
2023/08/08 00:45:44;;;;;;;;;;;;;;;15.14;65.71;99770.81;107267;1262;72693;-85
2023/08/08 00:48:19;;;;;;;;;;;;;;;15.11;65.61;99775.96;107046;1262;124412;-85
2023/08/08 00:50:46;;;;;;;;;;;;;;;15.07;65.54;99775.11;107079;1262;72631;-86
2023/08/08 00:53:33;;;;;;;;;;;;;;;15.02;65.36;99780.11;107048;1262;124340;-86
2023/08/08 00:56:13;;;;;;;;;;;;;;;15.00;65.38;99776.94;106972;1262;61371;-86
2023/08/08 00:58:40;;;;;;;;;;;;;;;14.99;65.31;99777.65;106811;1256;124769;-86
2023/08/08 01:01:14;;;;;;;;;;;;;;;14.96;65.27;99773.96;107397;1254;67105;-87
2023/08/08 01:03:41;;;;;;;;;;;;;;;14.91;65.16;99776.48;107432;1255;72673;-86
2023/08/08 01:06:23;;;;;;;;;;;;;;;14.85;65.20;99779.19;107591;1255;123934;-87
2023/08/08 01:11:51;;;;;;;;;;;;;;;14.71;65.20;99778.76;107385;1256;123951;-86
2023/08/08 01:14:37;;;;;;;;;;;;;;;14.64;65.18;99776.34;107326;1256;67231;-87
2023/08/08 01:17:05;;;;;;;;;;;;;;;14.55;65.15;99777.27;107142;1256;125035;-86
2023/08/08 01:19:34;;;;;;;;;;;;;;;14.51;65.25;99773.05;107383;1255;61101;-86
2023/08/08 01:22:06;;;;;;;;;;;;;;;14.53;65.36;99773.38;107439;1255;61134;-85
2023/08/08 01:24:36;;;;;;;;;;;;;;;14.56;65.25;99773.55;107461;1256;124504;-85
2023/08/08 01:27:20;;;;;;;;;;;;;;;14.62;65.29;99776.73;107771;1255;67039;-86
2023/08/08 01:29:47;;;;;;;;;;;;;;;14.67;65.13;99783.92;107473;1255;125158;-87
2023/08/08 01:32:26;;;;;;;;;;;;;;;14.71;65.08;99778.41;107375;1256;61244;-87
2023/08/08 01:34:55;;;;;;;;;;;;;;;14.76;65.11;99779.79;107340;1259;125315;-86
2023/08/08 01:37:51;;;;;;;;;;;;;;;14.81;65.06;99776.39;107636;1256;74101;-87
2023/08/08 01:40:24;;;;;;;;;;;;;;;14.86;64.99;99781.11;107480;1256;124101;-87
2023/08/08 01:42:58;;;;;;;;;;;;;;;14.88;65.01;99778.80;107550;1259;72479;-86
2023/08/08 01:45:33;;;;;;;;;;;;;;;14.87;64.77;99776.52;107301;1256;61356;-86
2023/08/08 01:48:35;;;;;;;;;;;;;;;14.83;64.59;99773.91;107286;1255;124220;-86
2023/08/08 01:51:09;;;;;;;;;;;;;;;14.75;64.54;99774.14;107494;1256;73460;-87
2023/08/08 01:53:36;;;;;;;;;;;;;;;14.71;64.57;99776.83;107369;1256;123909;-87
2023/08/08 01:56:11;;;;;;;;;;;;;;;14.66;64.51;99773.85;107370;1255;72475;-87
2023/08/08 01:58:52;;;;;;;;;;;;;;;14.62;64.42;99779.72;107207;1260;124642;-87
2023/08/08 02:01:37;;;;;;;;;;;;;;;14.56;64.52;99780.08;107522;1260;61147;-87
2023/08/08 02:04:06;;;;;;;;;;;;;;;14.51;64.67;99779.59;107789;1257;72833;-87
2023/08/08 02:06:33;;;;;;;;;;;;;;;14.47;64.65;99782.42;107431;1254;123890;-88
2023/08/08 02:09:03;;;;;;;;;;;;;;;14.44;64.65;99785.80;107416;1260;70886;-88
2023/08/08 02:11:34;;;;;;;;;;;;;;;14.40;64.60;99781.23;107364;1256;123935;-87
2023/08/08 02:14:15;;;;;;;;;;;;;;;14.37;64.70;99778.42;107313;1262;61071;-88
2023/08/08 02:17:17;;;;;;;;;;;;;;;14.34;64.63;99783.05;107309;1254;124125;-86
2023/08/08 02:20:11;;;;;;;;;;;;;;;14.26;64.51;99782.55;107302;1259;68464;-86
2023/08/08 02:22:48;;;;;;;;;;;;;;;14.21;64.46;99785.40;107159;1265;124187;-87
2023/08/08 02:25:24;;;;;;;;;;;;;;;14.17;64.47;99785.25;107145;1262;59421;-86
2023/08/08 02:27:58;;;;;;;;;;;;;;;14.14;64.56;99780.14;107016;1261;61105;-87
2023/08/08 02:30:32;;;;;;;;;;;;;;;14.10;64.66;99780.69;106951;1259;124301;-87
2023/08/08 02:32:59;;;;;;;;;;;;;;;14.08;64.71;99784.59;107203;1262;65845;-86
2023/08/08 02:35:27;;;;;;;;;;;;;;;14.08;64.80;99782.48;107020;1259;124932;-86
2023/08/08 02:37:54;;;;;;;;;;;;;;;14.08;64.88;99786.00;107012;1262;61412;-87
2023/08/08 02:40:30;;;;;;;;;;;;;;;14.09;64.95;99780.35;106808;1265;124913;-87
2023/08/08 02:42:57;;;;;;;;;;;;;;;14.11;65.09;99786.69;107226;1259;74641;-87
2023/08/08 02:45:26;;;;;;;;;;;;;;;14.12;65.14;99787.21;107170;1263;66884;-87
2023/08/08 02:48:02;;;;;;;;;;;;;;;14.12;65.20;99789.86;106982;1260;124463;-87
2023/08/08 02:50:35;;;;;;;;;;;;;;;14.13;65.23;99799.03;106941;1262;61246;-87
2023/08/08 02:53:15;;;;;;;;;;;;;;;14.15;65.33;99798.14;106772;1262;123920;-87
2023/08/08 02:55:55;;;;;;;;;;;;;;;14.19;65.31;99804.98;106920;1261;74498;-86
2023/08/08 02:58:24;;;;;;;;;;;;;;;14.24;65.30;99805.50;107030;1262;124756;-87
2023/08/08 03:00:53;;;;;;;;;;;;;;;14.26;65.39;99806.20;107083;1260;72861;-87
2023/08/08 03:03:28;;;;;;;;;;;;;;;14.25;65.35;99801.79;107222;1259;59763;-87
2023/08/08 03:06:01;;;;;;;;;;;;;;;14.28;65.37;99805.66;107064;1261;124139;-87
2023/08/08 03:11:20;;;;;;;;;;;;;;;14.32;65.48;99810.04;106953;1262;124035;-87
2023/08/08 03:13:48;;;;;;;;;;;;;;;14.34;65.51;99813.90;107291;1261;73259;-86
2023/08/08 03:16:16;;;;;;;;;;;;;;;14.36;65.53;99819.39;107238;1259;124109;-86
2023/08/08 03:18:43;;;;;;;;;;;;;;;14.37;65.54;99817.77;107338;1262;60184;-87
2023/08/08 03:21:10;;;;;;;;;;;;;;;14.39;65.60;99824.13;107481;1262;74449;-86
2023/08/08 03:23:58;;;;;;;;;;;;;;;14.42;65.67;99823.23;108153;1257;123948;-87
2023/08/08 03:26:54;;;;;;;;;;;;;;;14.44;65.63;99823.23;107653;1264;74318;-88
2023/08/08 03:29:21;;;;;;;;;;;;;;;14.46;65.73;99823.91;107435;1265;124716;-87
2023/08/08 03:31:54;;;;;;;;;;;;;;;14.47;65.61;99827.97;107735;1264;59891;-87
2023/08/08 03:34:22;;;;;;;;;;;;;;;14.51;65.66;99832.02;107071;1263;125049;-86
2023/08/08 03:36:49;;;;;;;;;;;;;;;14.56;65.71;99833.93;107429;1266;64837;-87
2023/08/08 03:39:36;;;;;;;;;;;;;;;14.61;65.72;99835.69;107601;1262;72606;-87
2023/08/08 03:42:39;;;;;;;;;;;;;;;14.66;65.67;99836.19;107417;1264;61358;-87
2023/08/08 03:45:19;;;;;;;;;;;;;;;14.70;65.52;99840.92;107609;1265;59270;-87
2023/08/08 03:47:46;;;;;;;;;;;;;;;14.74;65.49;99847.44;107446;1264;123143;-86
2023/08/08 03:50:15;;;;;;;;;;;;;;;14.78;65.53;99855.89;107015;1262;67084;-85
2023/08/08 03:53:01;;;;;;;;;;;;;;;14.83;65.41;99852.33;106925;1265;127599;-85
2023/08/08 03:58:38;;;;;;;;;;;;;;;14.88;65.29;99855.64;106843;1267;124189;-87
2023/08/08 04:01:07;;;;;;;;;;;;;;;14.88;65.27;99860.23;106817;1267;73232;-87
2023/08/08 04:03:57;;;;;;;;;;;;;;;14.89;65.25;99862.52;107107;1259;65768;-87
2023/08/08 04:06:36;;;;;;;;;;;;;;;14.91;65.30;99860.58;107497;1255;124642;-89
2023/08/08 04:09:04;;;;;;;;;;;;;;;14.94;65.07;99866.55;107704;1256;60451;-90
2023/08/08 04:11:31;;;;;;;;;;;;;;;14.94;65.12;99869.73;107457;1255;124314;-89
2023/08/08 04:13:59;;;;;;;;;;;;;;;14.95;65.10;99871.49;107677;1256;74478;-89
2023/08/08 04:16:50;;;;;;;;;;;;;;;14.98;65.14;99881.02;107207;1256;124156;-87
2023/08/08 04:19:17;;;;;;;;;;;;;;;15.01;65.04;99884.70;107550;1256;72758;-88
2023/08/08 04:22:13;;;;;;;;;;;;;;;15.03;65.06;99894.41;107592;1255;60339;-89
2023/08/08 04:24:40;;;;;;;;;;;;;;;15.05;65.03;99900.23;107770;1254;61716;-88
2023/08/08 04:27:29;;;;;;;;;;;;;;;15.06;64.92;99892.80;107473;1257;74544;-89
2023/08/08 04:29:59;;;;;;;;;;;;;;;15.08;64.88;99903.73;107513;1254;124448;-88
2023/08/08 04:32:28;;;;;;;;;;;;;;;15.08;64.85;99903.02;107433;1256;73497;-89
2023/08/08 04:35:04;;;;;;;;;;;;;;;15.08;64.92;99904.79;107637;1262;124798;-89
2023/08/08 04:37:32;;;;;;;;;;;;;;;15.12;64.85;99909.02;107493;1256;60159;-90
2023/08/08 04:40:12;;;;;;;;;;;;;;;15.15;64.75;99915.70;107319;1256;73318;-87
2023/08/08 04:42:45;;;;;;;;;;;;;;;15.18;64.68;99917.10;107083;1261;124669;-86
2023/08/08 04:45:29;;;;;;;;;;;;;;;15.22;64.72;99926.08;107564;1254;72775;-91
2023/08/08 04:48:02;;;;;;;;;;;;;;;15.29;64.82;99922.67;107302;1256;123967;-87
2023/08/08 04:51:03;;;;;;;;;;;;;;;15.33;64.51;99923.35;107285;1260;61135;-88
2023/08/08 04:53:47;;;;;;;;;;;;;;;15.37;64.40;99929.14;106955;1259;123903;-88
2023/08/08 04:56:20;;;;;;;;;;;;;;;15.43;64.34;99928.58;107097;1264;68692;-88
2023/08/08 04:58:52;;;;;;;;;;;;;;;15.49;64.22;99921.98;107164;1260;124392;-87
2023/08/08 05:01:20;;;;;;;;;;;;;;;15.68;64.39;99922.35;107820;1254;83146;-89
2023/08/08 05:03:49;;;;;;;;;;;;;;;15.92;64.10;99925.87;107914;1256;61266;-90
2023/08/08 05:06:16;;;;;;;;;;;;;;;16.05;63.73;99927.32;107942;1258;124482;-88
2023/08/08 05:08:44;;;;;;;;;;;;;;;16.13;63.39;99931.13;107870;1259;67325;-88
2023/08/08 05:11:15;;;;;;;;;;;;;;;16.18;63.35;99934.63;107198;1256;124448;-84
2023/08/08 05:13:43;;;;;;;;;;;;;;;16.20;63.18;99934.42;107552;1256;59462;-87
2023/08/08 05:16:12;;;;;;;;;;;;;;;16.23;62.92;99933.15;107586;1263;59421;-86
2023/08/08 05:18:44;;;;;;;;;;;;;;;16.22;62.74;99940.25;107441;1256;122901;-86
2023/08/08 05:21:11;;;;;;;;;;;;;;;16.26;62.76;99945.16;107951;1260;67434;-85
2023/08/08 05:23:44;;;;;;;;;;;;;;;16.33;62.74;99945.78;107887;1256;124587;-87
2023/08/08 05:26:24;;;;;;;;;;;;;;;16.43;62.68;99940.16;107835;1262;61488;-89
2023/08/08 05:28:51;;;;;;;;;;;;;;;16.60;62.34;99950.94;107641;1256;124591;-92
2023/08/08 05:31:38;;;;;;;;;;;;;;;16.70;62.13;99951.89;107799;1256;76754;-91
2023/08/08 05:34:08;;;;;;;;;;;;;;;16.89;62.28;99958.58;108141;1256;67743;-92
2023/08/08 05:36:36;;;;;;;;;;;;;;;17.52;62.22;99957.46;108574;1260;123203;-92
2023/08/08 05:39:06;;;;;;;;;;;;;;;18.11;61.96;99953.99;109004;1262;58920;-87
2023/08/08 05:41:37;;;;;;;;;;;;;;;19.04;61.37;99959.74;108731;1263;123424;-89
2023/08/08 05:44:12;;;;;;;;;;;;;;;19.37;59.81;99956.88;108801;1263;73932;-88
2023/08/08 05:46:41;;;;;;;;;;;;;;;19.46;59.36;99966.45;108487;1256;123023;-88
2023/08/08 05:49:08;;;;;;;;;;;;;;;19.73;58.85;99971.67;107904;1260;71233;-86
2023/08/08 05:51:36;;;;;;;;;;;;;;;19.65;57.93;99968.29;108084;1257;59803;-86
2023/08/08 05:54:05;;;;;;;;;;;;;;;19.44;57.59;99978.59;108016;1256;124544;-86
2023/08/08 05:56:36;;;;;;;;;;;;;;;19.30;57.53;99980.17;107632;1264;75948;-86
2023/08/08 05:59:03;;;;;;;;;;;;;;;19.12;57.36;99980.02;107583;1264;124472;-86
2023/08/08 06:01:31;;;;;;;;;;;;;;;18.94;57.34;99992.15;108709;1263;74506;-86
2023/08/08 06:03:59;;;;;;;;;;;;;;;18.75;57.29;99996.28;108869;1256;60427;-87
2023/08/08 06:06:26;;;;;;;;;;;;;;;18.57;57.39;99997.48;108829;1259;124029;-86
2023/08/08 06:08:53;;;;;;;;;;;;;;;18.46;57.54;99995.95;108908;1256;73767;-86
2023/08/08 06:11:21;;;;;;;;;;;;;;;18.33;57.32;99997.98;108648;1256;123049;-86
2023/08/08 06:13:49;;;;;;;;;;;;;;;18.31;57.63;100003.17;108747;1256;72507;-86
2023/08/08 06:16:16;;;;;;;;;;;;;;;18.36;57.62;100003.60;108897;1256;59458;-86
2023/08/08 06:18:43;;;;;;;;;;;;;;;18.46;57.63;99998.25;108641;1256;313492;-86
2023/08/08 06:21:13;;;;;;;;;;;;;;;18.60;57.45;99991.23;108874;1256;75397;-86
2023/08/08 06:23:40;;;;;;;;;;;;;;;18.70;57.16;100000.98;108872;1256;123524;-86
2023/08/08 06:26:07;;;;;;;;;;;;;;;18.74;56.77;99998.60;108978;1256;72562;-86
2023/08/08 06:28:34;;;;;;;;;;;;;;;18.65;56.60;99996.27;108357;1256;124520;-91
2023/08/08 06:31:02;;;;;;;;;;;;;;;18.63;57.22;99993.31;107635;1256;60064;-84
2023/08/08 06:33:29;;;;;;;;;;;;;;;18.64;57.01;100000.58;107921;1256;72556;-87
2023/08/08 06:35:56;;;;;;;;;;;;;;;18.61;56.84;99999.39;107740;1256;124622;-85
2023/08/08 06:38:23;;;;;;;;;;;;;;;18.52;56.77;100003.48;108074;1257;73578;-84
2023/08/08 06:40:51;;;;;;;;;;;;;;;18.48;56.78;100004.44;107837;1256;125769;-84
2023/08/08 06:43:18;;;;;;;;;;;;;;;18.45;56.59;100007.16;107722;1256;61185;-86
2023/08/08 06:45:45;;;;;;;;;;;;;;;18.66;57.09;100021.15;107698;1255;73019;-87
2023/08/08 06:48:14;;;;;;;;;;;;;;;19.06;56.97;100018.20;107658;1256;124160;-86
2023/08/08 06:50:44;;;;;;;;;;;;;;;19.40;56.31;100019.61;107666;1256;72527;-86
2023/08/08 06:53:11;;;;;;;;;;;;;;;19.59;55.82;100025.20;108056;1260;125250;-85
2023/08/08 06:55:47;;;;;;;;;;;;;;;19.70;55.41;100026.02;108120;1256;61217;-86
2023/08/08 06:58:14;;;;;;;;;;;;;;;19.86;55.33;100030.84;107890;1256;73303;-86
2023/08/08 07:00:42;;;;;;;;;;;;;;;19.94;54.80;100025.81;107556;1256;124622;-86
2023/08/08 07:03:09;;;;;;;;;;;;;;;19.97;54.62;100029.30;107961;1256;73872;-86
2023/08/08 07:05:37;;;;;;;;;;;;;;;19.96;54.31;100037.17;108005;1256;124709;-85
2023/08/08 07:08:05;;;;;;;;;;;;;;;20.06;54.46;100037.47;108196;1256;61098;-86
2023/08/08 07:10:32;;;;;;;;;;;;;;;20.28;54.36;100044.55;108296;1259;124870;-85
2023/08/08 07:12:59;;;;;;;;;;;;;;;20.51;54.03;100042.86;108916;1256;65603;-85
2023/08/08 07:15:26;;;;;;;;;;;;;;;20.64;53.63;100043.07;108888;1256;72740;-85
2023/08/08 07:17:53;;;;;;;;;;;;;;;20.63;53.27;100049.68;108771;1260;124157;-85
2023/08/08 07:20:20;;;;;;;;;;;;;;;20.62;53.07;100050.42;108952;1256;59775;-85
2023/08/08 07:22:47;;;;;;;;;;;;;;;20.67;53.08;100061.36;108751;1256;124960;-85
2023/08/08 07:25:15;;;;;;;;;;;;;;;20.73;53.18;100060.81;109009;1255;67841;-85
2023/08/08 07:27:42;;;;;;;;;;;;;;;20.78;52.95;100066.38;108956;1256;72778;-85
2023/08/08 07:30:13;;;;;;;;;;;;;;;20.84;52.85;100069.44;108809;1259;124263;-85
2023/08/08 07:32:40;;;;;;;;;;;;;;;20.97;52.45;100070.14;108963;1255;59086;-85
2023/08/08 07:35:08;;;;;;;;;;;;;;;21.07;52.26;100067.90;108741;1256;124539;-86
2023/08/08 07:37:39;;;;;;;;;;;;;;;21.07;51.84;100073.58;108885;1259;66555;-86
2023/08/08 07:40:26;;;;;;;;;;;;;;;21.06;51.83;100078.27;108873;1256;73247;-85
2023/08/08 07:42:56;;;;;;;;;;;;;;;20.96;51.28;100085.31;108839;1256;124385;-86
2023/08/08 07:45:25;;;;;;;;;;;;;;;20.78;51.12;100089.74;108995;1256;59331;-85
2023/08/08 07:48:20;;;;;;;;;;;;;;;20.52;50.92;100090.96;108812;1256;124789;-86
2023/08/08 07:50:50;;;;;;;;;;;;;;;20.24;51.10;100099.16;108861;1256;65563;-86
2023/08/08 07:53:17;;;;;;;;;;;;;;;20.04;51.29;100098.23;108561;1264;125477;-86
2023/08/08 07:55:59;;;;;;;;;;;;;;;19.86;51.30;100104.20;108956;1256;59387;-86
2023/08/08 07:58:27;;;;;;;;;;;;;;;19.66;51.25;100104.77;108872;1256;59455;-86
2023/08/08 08:00:54;;;;;;;;;;;;;;;19.62;51.46;100098.29;108833;1256;124417;-87
2023/08/08 08:03:21;;;;;;;;;;;;;;;19.61;51.54;100101.69;108793;1257;67730;-86
2023/08/08 08:05:48;;;;;;;;;;;;;;;19.56;51.29;100089.71;108821;1256;125417;-86
2023/08/08 08:08:15;;;;;;;;;;;;;;;19.51;51.61;100093.02;108923;1256;59367;-86
2023/08/08 08:10:43;;;;;;;;;;;;;;;19.51;51.49;100100.15;108738;1256;124783;-87
2023/08/08 08:13:11;;;;;;;;;;;;;;;19.60;51.74;100103.67;108945;1256;73465;-85
2023/08/08 08:15:38;;;;;;;;;;;;;;;19.94;51.98;100106.65;109006;1255;67567;-86
2023/08/08 08:18:06;;;;;;;;;;;;;;;20.33;51.54;100111.94;108764;1256;125147;-86
2023/08/08 08:20:33;;;;;;;;;;;;;;;20.62;51.01;100112.10;108767;1256;59614;-87
2023/08/08 08:23:00;;;;;;;;;;;;;;;20.61;50.18;100118.00;108270;1262;124604;-86
2023/08/08 08:25:27;;;;;;;;;;;;;;;20.48;49.92;100125.11;107811;1256;73107;-86
2023/08/08 08:27:54;;;;;;;;;;;;;;;20.39;49.83;100127.98;107705;1261;65614;-86
2023/08/08 08:30:24;;;;;;;;;;;;;;;20.35;49.70;100128.10;107880;1257;124783;-86
2023/08/08 08:32:51;;;;;;;;;;;;;;;20.28;49.66;100130.78;107983;1256;61187;-86
2023/08/08 08:35:36;;;;;;;;;;;;;;;20.17;49.46;100133.54;108493;1255;124115;-87
2023/08/08 08:38:04;;;;;;;;;;;;;;;20.01;49.26;100136.42;108744;1256;74211;-87
2023/08/08 08:40:36;;;;;;;;;;;;;;;19.94;49.43;100137.46;107667;1256;124604;-86
2023/08/08 08:43:05;;;;;;;;;;;;;;;20.06;49.54;100138.27;108936;1255;71094;-86
2023/08/08 08:45:35;;;;;;;;;;;;;;;20.30;49.41;100141.59;108508;1261;59393;-87
2023/08/08 08:48:02;;;;;;;;;;;;;;;20.54;49.39;100146.54;107756;1259;124617;-84
2023/08/08 08:50:29;;;;;;;;;;;;;;;20.71;48.87;100141.30;107793;1256;74185;-84
2023/08/08 08:52:56;;;;;;;;;;;;;;;20.81;48.52;100150.85;107748;1257;124808;-84
2023/08/08 08:55:23;;;;;;;;;;;;;;;20.81;48.35;100147.29;107907;1257;73205;-86
2023/08/08 08:57:50;;;;;;;;;;;;;;;20.91;48.39;100145.20;108150;1256;59435;-85
2023/08/08 09:00:17;;;;;;;;;;;;;;;21.06;48.25;100151.06;108028;1262;124826;-85
2023/08/08 09:02:45;;;;;;;;;;;;;;;21.06;47.96;100155.50;108177;1256;73110;-85
2023/08/08 09:05:14;;;;;;;;;;;;;;;20.91;47.74;100154.48;108010;1261;125054;-86
2023/08/08 09:07:41;;;;;;;;;;;;;;;20.75;47.77;100159.54;107942;1261;72061;-85
2023/08/08 09:10:08;;;;;;;;;;;;;;;20.79;47.97;100161.05;107900;1256;59780;-85
2023/08/08 09:12:36;;;;;;;;;;;;;;;21.02;47.74;100167.55;107731;1259;125239;-85
2023/08/08 09:15:04;;;;;;;;;;;;;;;21.17;47.50;100171.08;107686;1256;74164;-86
2023/08/08 09:17:31;;;;;;;;;;;;;;;21.27;47.30;100173.47;107715;1260;124571;-85
2023/08/08 09:19:58;;;;;;;;;;;;;;;21.37;47.11;100167.66;107851;1256;73471;-85
2023/08/08 09:22:26;;;;;;;;;;;;;;;21.39;46.83;100172.77;107672;1259;61212;-85
2023/08/08 09:24:53;;;;;;;;;;;;;;;21.41;46.75;100171.66;107870;1256;125065;-85
2023/08/08 09:27:20;;;;;;;;;;;;;;;21.48;46.70;100169.50;107898;1257;74430;-84
2023/08/08 09:29:47;;;;;;;;;;;;;;;21.59;46.58;100175.80;107740;1256;124376;-85
2023/08/08 09:32:15;;;;;;;;;;;;;;;21.88;46.50;100174.20;107972;1262;72690;-84
2023/08/08 09:34:42;;;;;;;;;;;;;;;22.10;46.09;100173.32;107986;1256;124481;-86
2023/08/08 09:37:10;;;;;;;;;;;;;;;22.24;45.80;100183.27;108030;1256;60122;-85
2023/08/08 09:39:37;;;;;;;;;;;;;;;22.51;45.64;100183.13;108054;1260;74079;-86
2023/08/08 09:42:04;;;;;;;;;;;;;;;22.50;44.96;100184.42;107920;1256;124746;-85
2023/08/08 09:44:31;;;;;;;;;;;;;;;22.28;44.70;100192.80;108070;1256;71768;-86
2023/08/08 09:47:01;;;;;;;;;;;;;;;21.97;44.76;100196.98;108100;1261;125575;-86
2023/08/08 09:49:28;;;;;;;;;;;;;;;21.73;45.11;100193.26;108612;1256;59591;-84
2023/08/08 09:51:57;;;;;;;;;;;;;;;21.56;45.12;100203.55;108620;1256;73118;-84
2023/08/08 09:54:24;;;;;;;;;;;;;;;21.39;45.19;100203.64;108850;1260;123820;-86
2023/08/08 09:56:51;;;;;;;;;;;;;;;21.33;45.29;100210.96;109136;1260;71369;-86
2023/08/08 09:59:18;;;;;;;;;;;;;;;21.33;45.35;100220.58;109063;1262;123775;-86
2023/08/08 10:01:45;;;;;;;;;;;;;;;21.31;45.20;100223.33;109169;1257;59053;-86
2023/08/08 10:04:14;;;;;;;;;;;;;;;21.21;45.00;100213.09;108922;1257;74781;-85
2023/08/08 10:06:41;;;;;;;;;;;;;;;20.97;44.85;100210.52;108878;1256;122919;-86
2023/08/08 10:09:09;;;;;;;;;;;;;;;20.74;45.12;100213.23;108085;1256;70384;-84
2023/08/08 10:11:36;;;;;;;;;;;;;;;20.70;45.62;100211.57;107775;1256;124361;-86
2023/08/08 10:14:04;;;;;;;;;;;;;;;20.85;45.67;100212.42;107745;1259;61270;-85
2023/08/08 10:16:32;;;;;;;;;;;;;;;20.94;45.12;100207.90;107605;1260;124413;-85
2023/08/08 10:18:59;;;;;;;;;;;;;;;21.07;45.25;100221.48;107759;1256;64863;-85
2023/08/08 10:21:27;;;;;;;;;;;;;;;21.25;44.99;100225.29;107741;1256;72548;-86
2023/08/08 10:24:06;;;;;;;;;;;;;;;21.25;44.76;100224.92;107748;1257;125246;-85
2023/08/08 10:26:33;;;;;;;;;;;;;;;21.34;44.71;100224.48;107792;1258;59748;-85
2023/08/08 10:29:00;;;;;;;;;;;;;;;21.55;44.80;100228.02;107301;1256;124431;-85
2023/08/08 10:31:32;;;;;;;;;;;;;;;21.53;44.20;100230.96;107482;1261;67069;-86
2023/08/08 10:34:03;;;;;;;;;;;;;;;21.33;44.26;100224.34;108292;1259;71570;-84
2023/08/08 10:36:43;;;;;;;;;;;;;;;21.15;44.47;100221.08;108094;1258;125791;-86
2023/08/08 10:39:17;;;;;;;;;;;;;;;20.94;44.19;100223.98;107887;1257;61222;-86
2023/08/08 10:41:47;;;;;;;;;;;;;;;20.80;44.42;100221.29;107606;1256;124223;-84
2023/08/08 10:44:21;;;;;;;;;;;;;;;20.81;44.73;100223.42;107596;1257;67009;-85
2023/08/08 10:46:47;;;;;;;;;;;;;;;21.09;44.75;100225.36;107538;1257;126417;-85
2023/08/08 10:49:15;;;;;;;;;;;;;;;21.24;44.32;100222.45;107808;1257;60022;-86
2023/08/08 10:51:43;;;;;;;;;;;;;;;21.26;44.45;100224.91;107713;1256;61222;-87
2023/08/08 10:54:13;;;;;;;;;;;;;;;21.16;44.45;100217.48;107694;1256;124704;-85
2023/08/08 10:56:41;;;;;;;;;;;;;;;20.97;44.32;100221.05;107705;1260;66865;-84
2023/08/08 10:59:16;;;;;;;;;;;;;;;20.83;44.36;100223.18;107449;1260;124995;-84
2023/08/08 11:01:44;;;;;;;;;;;;;;;20.72;44.05;100221.85;107475;1262;61221;-85
2023/08/08 11:04:11;;;;;;;;;;;;;;;20.61;43.70;100229.60;107822;1256;61202;-85
2023/08/08 11:06:39;;;;;;;;;;;;;;;20.58;44.00;100226.63;107903;1256;124289;-85
2023/08/08 11:09:06;;;;;;;;;;;;;;;20.71;44.16;100229.54;107945;1257;67067;-85
2023/08/08 11:11:40;;;;;;;;;;;;;;;20.98;44.36;100236.89;107995;1257;124243;-85
2023/08/08 11:14:14;;;;;;;;;;;;;;;21.14;43.91;100250.19;108047;1262;61192;-85
2023/08/08 11:16:41;;;;;;;;;;;;;;;21.15;44.17;100264.06;107707;1257;125102;-84
2023/08/08 11:19:08;;;;;;;;;;;;;;;21.14;44.34;100280.89;107849;1260;74958;-84
2023/08/08 11:21:40;;;;;;;;;;;;;;;21.03;44.58;100297.77;107994;1261;67162;-85
2023/08/08 11:24:07;;;;;;;;;;;;;;;20.81;45.55;100308.10;107888;1257;124372;-85
2023/08/08 11:26:35;;;;;;;;;;;;;;;20.50;46.18;100315.41;108365;1260;61334;-86
2023/08/08 11:29:02;;;;;;;;;;;;;;;20.26;46.56;100318.42;108164;1260;126054;-84
2023/08/08 11:31:29;;;;;;;;;;;;;;;20.12;46.89;100315.70;108156;1260;73823;-85
2023/08/08 11:33:57;;;;;;;;;;;;;;;20.23;47.50;100313.35;107912;1265;66951;-84
2023/08/08 11:36:25;;;;;;;;;;;;;;;20.50;47.52;100308.83;107678;1260;124578;-86
2023/08/08 11:38:52;;;;;;;;;;;;;;;20.82;47.29;100304.54;107846;1257;59648;-86
2023/08/08 11:41:20;;;;;;;;;;;;;;;21.05;47.13;100301.98;107940;1257;125012;-85
2023/08/08 11:43:47;;;;;;;;;;;;;;;21.32;47.00;100298.44;107955;1257;74451;-86
2023/08/08 11:46:14;;;;;;;;;;;;;;;21.48;46.91;100298.05;107966;1257;65989;-85
2023/08/08 11:48:41;;;;;;;;;;;;;;;21.40;46.73;100294.11;107798;1257;125808;-83
2023/08/08 11:51:08;;;;;;;;;;;;;;;21.23;46.83;100300.64;108042;1258;61206;-86
2023/08/08 11:53:35;;;;;;;;;;;;;;;21.09;47.08;100294.39;107785;1257;124190;-85
2023/08/08 11:56:06;;;;;;;;;;;;;;;20.97;47.51;100297.91;108204;1258;74481;-84
2023/08/08 11:58:33;;;;;;;;;;;;;;;20.85;47.56;100300.88;108772;1260;124699;-86
2023/08/08 12:01:02;;;;;;;;;;;;;;;20.76;47.91;100294.52;109075;1257;71448;-85
2023/08/08 12:03:28;;;;;;;;;;;;;;;20.70;47.96;100300.17;108336;1263;62642;-86
2023/08/08 12:05:55;;;;;;;;;;;;;;;20.64;47.94;100301.20;108657;1256;124203;-86
2023/08/08 12:08:23;;;;;;;;;;;;;;;20.58;48.08;100303.10;108931;1258;74607;-86
2023/08/08 12:10:55;;;;;;;;;;;;;;;20.55;48.24;100304.77;108960;1257;124330;-86
2023/08/08 12:13:28;;;;;;;;;;;;;;;20.56;48.48;100312.77;108686;1257;72434;-86
2023/08/08 12:15:55;;;;;;;;;;;;;;;20.56;48.15;100315.10;107720;1255;61235;-85
2023/08/08 12:18:22;;;;;;;;;;;;;;;20.49;48.38;100311.34;107756;1257;125188;-85
2023/08/08 12:20:49;;;;;;;;;;;;;;;20.41;48.58;100317.02;108065;1256;74006;-85
2023/08/08 12:23:16;;;;;;;;;;;;;;;20.51;48.92;100318.61;107745;1257;125417;-84
2023/08/08 12:25:43;;;;;;;;;;;;;;;20.58;48.74;100312.54;107967;1260;72664;-85
2023/08/08 12:28:10;;;;;;;;;;;;;;;20.53;48.49;100314.63;107968;1260;59620;-85
2023/08/08 12:30:37;;;;;;;;;;;;;;;20.43;48.36;100317.69;107785;1258;124154;-85
2023/08/08 12:33:04;;;;;;;;;;;;;;;20.32;48.49;100316.52;107754;1258;75031;-84
2023/08/08 12:35:31;;;;;;;;;;;;;;;20.27;48.60;100320.19;107607;1261;124344;-86
2023/08/08 12:37:58;;;;;;;;;;;;;;;20.25;48.58;100305.98;107826;1257;71341;-84
2023/08/08 12:40:25;;;;;;;;;;;;;;;20.23;48.39;100302.30;107846;1257;61336;-85
2023/08/08 12:42:52;;;;;;;;;;;;;;;20.22;48.54;100307.84;107815;1258;125956;-85
2023/08/08 12:45:19;;;;;;;;;;;;;;;20.24;48.32;100312.60;108039;1258;76318;-84
2023/08/08 12:47:46;;;;;;;;;;;;;;;20.27;48.72;100317.88;107974;1256;124679;-85
2023/08/08 12:50:14;;;;;;;;;;;;;;;20.28;48.76;100314.29;108143;1259;72749;-84
2023/08/08 12:52:41;;;;;;;;;;;;;;;20.30;48.98;100314.27;107805;1257;124446;-86
2023/08/08 12:55:09;;;;;;;;;;;;;;;20.33;49.23;100318.45;107955;1260;61106;-86
2023/08/08 12:57:36;;;;;;;;;;;;;;;20.35;49.23;100313.23;108026;1256;74699;-84
2023/08/08 13:00:03;;;;;;;;;;;;;;;20.40;49.46;100310.98;107855;1259;124240;-85